N382QS MYNN-KORL
Flight info
| Callsign | N382QS |
|---|---|
| Flight time | N/A |
| Altitude | 40000 |
| Route | PEACH Y421 OCTAL MUNGI1 |
| Aircraft | CL60/M-SADE3FGHIJ3J4J7P2RWXY/HB1D1 |
Departure
| Time | 2026-05-05 20:41 |
|---|---|
| Airport | Lynden Pindling International Airport (MYNN) |
Arrival
| Time | N/A |
|---|---|
| Airport | Orlando Executive Airport (KORL) |
| Time | Latitude | Longitude | Altitude | Speed | Heading |
|---|---|---|---|---|---|
| 2026-05-05 20:00 | 25.04424 | -77.46179 | 8 ft | 0 kts | 49° |
| 2026-05-05 20:28 | 25.04425 | -77.46178 | 8 ft | 1 kts | 51° |
| 2026-05-05 20:28 | 25.04427 | -77.46176 | 8 ft | 0 kts | 56° |
| 2026-05-05 20:34 | 25.04427 | -77.46175 | 8 ft | 0 kts | 56° |
| 2026-05-05 20:34 | 25.04433 | -77.46164 | 8 ft | 4 kts | 54° |
| 2026-05-05 20:34 | 25.04490 | -77.46176 | 8 ft | 16 kts | 306° |
| 2026-05-05 20:34 | 25.04524 | -77.46324 | 8 ft | 17 kts | 272° |
| 2026-05-05 20:35 | 25.04525 | -77.46392 | 8 ft | 8 kts | 271° |
| 2026-05-05 20:35 | 25.04526 | -77.46429 | 8 ft | 5 kts | 270° |
| 2026-05-05 20:35 | 25.04526 | -77.46474 | 8 ft | 0 kts | 270° |
| 2026-05-05 20:36 | 25.04559 | -77.46526 | 8 ft | 16 kts | 282° |
| 2026-05-05 20:36 | 25.04582 | -77.46646 | 8 ft | 20 kts | 317° |
| 2026-05-05 20:36 | 25.04709 | -77.46777 | 8 ft | 28 kts | 313° |
| 2026-05-05 20:36 | 25.04866 | -77.46958 | 8 ft | 35 kts | 314° |
| 2026-05-05 20:37 | 25.05028 | -77.47138 | 8 ft | 21 kts | 315° |
| 2026-05-05 20:37 | 25.05134 | -77.47259 | 8 ft | 18 kts | 314° |
| 2026-05-05 20:37 | 25.05211 | -77.47343 | 8 ft | 13 kts | 305° |
| 2026-05-05 20:37 | 25.05220 | -77.47395 | 8 ft | 9 kts | 271° |
| 2026-05-05 20:38 | 25.05216 | -77.47437 | 8 ft | 0 kts | 256° |
| 2026-05-05 20:38 | 25.05215 | -77.47440 | 8 ft | 3 kts | 256° |
| 2026-05-05 20:39 | 25.05184 | -77.47516 | 8 ft | 14 kts | 240° |
| 2026-05-05 20:39 | 25.05166 | -77.47546 | 8 ft | 2 kts | 208° |
| 2026-05-05 20:39 | 25.05143 | -77.47526 | 8 ft | 6 kts | 135° |
| 2026-05-05 20:39 | 25.05137 | -77.47520 | 8 ft | 0 kts | 135° |
| 2026-05-05 20:40 | 25.05133 | -77.47516 | 8 ft | 2 kts | 135° |
| 2026-05-05 20:40 | 25.04862 | -77.47221 | 8 ft | 119 kts | 133° |
| 2026-05-05 20:40 | 25.04075 | -77.46318 | 326 ft | 188 kts | 136° |
| 2026-05-05 20:41 | 25.03299 | -77.45412 | 1996 ft | 163 kts | 135° |
| 2026-05-05 20:41 | 25.02428 | -77.44370 | 2478 ft | 218 kts | 136° |
| 2026-05-05 20:41 | 25.01301 | -77.43165 | 3403 ft | 232 kts | 140° |
| 2026-05-05 20:41 | 25.00110 | -77.41996 | 4551 ft | 234 kts | 142° |
| 2026-05-05 20:42 | 24.98859 | -77.40868 | 5650 ft | 237 kts | 145° |
| 2026-05-05 20:42 | 24.97707 | -77.39554 | 6696 ft | 246 kts | 120° |
| 2026-05-05 20:42 | 24.97375 | -77.37722 | 7601 ft | 258 kts | 83° |
| 2026-05-05 20:42 | 24.98100 | -77.35944 | 8548 ft | 261 kts | 47° |
| 2026-05-05 20:43 | 24.99511 | -77.34709 | 9493 ft | 260 kts | 22° |
| 2026-05-05 20:43 | 25.01186 | -77.34151 | 10441 ft | 254 kts | 0° |
| 2026-05-05 20:43 | 25.02895 | -77.34295 | 11409 ft | 236 kts | 338° |
| 2026-05-05 20:43 | 25.04288 | -77.35015 | 12253 ft | 216 kts | 319° |
| 2026-05-05 20:44 | 25.05368 | -77.36063 | 12977 ft | 203 kts | 310° |
| 2026-05-05 20:44 | 25.06337 | -77.37123 | 13597 ft | 196 kts | 311° |
| 2026-05-05 20:44 | 25.07291 | -77.38163 | 14158 ft | 190 kts | 311° |
| 2026-05-05 20:44 | 25.08257 | -77.39223 | 14727 ft | 208 kts | 311° |
| 2026-05-05 20:45 | 25.10468 | -77.41654 | 16438 ft | 241 kts | 313° |
| 2026-05-05 20:45 | 25.11661 | -77.42960 | 17460 ft | 247 kts | 314° |
| 2026-05-05 20:45 | 25.12881 | -77.44295 | 18538 ft | 250 kts | 314° |
| 2026-05-05 20:46 | 25.14083 | -77.45610 | 19621 ft | 250 kts | 313° |
| 2026-05-05 20:46 | 25.15292 | -77.46932 | 20705 ft | 247 kts | 313° |
| 2026-05-05 20:46 | 25.16488 | -77.48241 | 21768 ft | 244 kts | 313° |
| 2026-05-05 20:46 | 25.17677 | -77.49541 | 22839 ft | 239 kts | 313° |
| 2026-05-05 20:47 | 25.18826 | -77.50798 | 23892 ft | 235 kts | 313° |
| 2026-05-05 20:47 | 25.19964 | -77.52045 | 24900 ft | 231 kts | 313° |
| 2026-05-05 20:47 | 25.21072 | -77.53258 | 25852 ft | 227 kts | 313° |
| 2026-05-05 20:47 | 25.22184 | -77.54477 | 26778 ft | 222 kts | 314° |
| 2026-05-05 20:48 | 25.23265 | -77.55662 | 27637 ft | 219 kts | 314° |
| 2026-05-05 20:48 | 25.24324 | -77.56823 | 28440 ft | 215 kts | 314° |
| 2026-05-05 20:48 | 25.25368 | -77.57968 | 29201 ft | 212 kts | 314° |
| 2026-05-05 20:48 | 25.26406 | -77.59107 | 29925 ft | 209 kts | 314° |
| 2026-05-05 20:49 | 25.27425 | -77.60226 | 30624 ft | 206 kts | 315° |
| 2026-05-05 20:49 | 25.28433 | -77.61332 | 31298 ft | 203 kts | 315° |
| 2026-05-05 20:49 | 25.29417 | -77.62413 | 31938 ft | 200 kts | 315° |
| 2026-05-05 20:49 | 25.30382 | -77.63474 | 32552 ft | 196 kts | 316° |
| 2026-05-05 20:50 | 25.31347 | -77.64533 | 33153 ft | 193 kts | 315° |
| 2026-05-05 20:50 | 25.32292 | -77.65572 | 33779 ft | 190 kts | 315° |
| 2026-05-05 20:50 | 25.33222 | -77.66595 | 34367 ft | 188 kts | 315° |
| 2026-05-05 20:50 | 25.34138 | -77.67600 | 34871 ft | 189 kts | 316° |
| 2026-05-05 20:51 | 25.35167 | -77.68651 | 34792 ft | 211 kts | 320° |
| 2026-05-05 20:51 | 25.36381 | -77.69649 | 35101 ft | 219 kts | 326° |
| 2026-05-05 20:51 | 25.37679 | -77.70363 | 36146 ft | 204 kts | 335° |